Terminal Aerodrome Forecast
Issued by NWS

Home | Current Version | Previous Version | Graphics & Text | Print | Product List | Glossary On
Versions: 1 2 3 4 5 6 7 8 9 10 11 12 13 14 15 16 17 18 19
000
FTUS41 KCLE 201000 AAA
TAFFDY
TAF AMD
KFDY 201026Z 2010/2106 00000KT 1SM BR SCT004
      TEMPO 2011/2012 1/4SM FG VV002
     FM201300 07003KT P6SM SCT025
     FM201500 VRB03KT P6SM SCT050
     FM202100 17004KT P6SM SCT250=

USA.gov is the U.S. government's official web portal to all federal, state and local government web resources and services.